This is the latest recevied weather packets stored in our database for station/object VK2OB. If no packets are shown the sender has not sent any weather packets the latest 10 day(s).
| Time | Temp. | Humidity | Pressure | Rain* | Wind** | Luminosity | Snow |
|---|---|---|---|---|---|---|---|
| 1777857396 | 26.67° C | 43% | 1017.4 hPa | 0 mm | - | - | - |
| 1777857097 | 27.22° C | 48% | 1017.4 hPa | 0 mm | - | - | - |
| 1777856798 | 27.78° C | 44% | 1017.4 hPa | 0 mm | - | - | - |
| 1777856499 | 27.78° C | 45% | 1017.4 hPa | 0 mm | - | - | - |
| 1777856200 | 27.22° C | 48% | 1017.5 hPa | 0 mm | - | - | - |
| 1777855901 | 26.67° C | 50% | 1017.6 hPa | 0 mm | - | - | - |
| 1777855602 | 25.56° C | 52% | 1017.5 hPa | 0 mm | - | - | - |
| 1777855303 | 25° C | 54% | 1017.5 hPa | 0 mm | - | - | - |
| 1777855004 | 25° C | 55% | 1017.6 hPa | 0 mm | - | - | - |
| 1777854705 | 24.44° C | 54% | 1017.6 hPa | 0 mm | - | - | - |
| 1777854406 | 25° C | 53% | 1017.7 hPa | 0 mm | - | - | - |
| 1777854107 | 25° C | 52% | 1017.7 hPa | 0 mm | - | - | - |
| 1777853808 | 25° C | 54% | 1017.7 hPa | 0 mm | - | - | - |
| 1777853509 | 25.56° C | 53% | 1017.7 hPa | 0 mm | - | - | - |
| 1777853210 | 25° C | 54% | 1017.7 hPa | 0 mm | - | - | - |
| 1777852910 | 25° C | 57% | 1017.7 hPa | 0 mm | - | - | - |
| 1777852612 | 25° C | 55% | 1017.8 hPa | 0 mm | - | - | - |
| 1777852313 | 24.44° C | 59% | 1017.7 hPa | 0 mm | - | - | - |
| 1777852014 | 25° C | 57% | 1017.7 hPa | 0 mm | - | - | - |
| 1777851715 | 24.44° C | 58% | 1017.7 hPa | 0 mm | - | - | - |
| 1777851415 | 23.89° C | 63% | 1017.8 hPa | 0 mm | - | - | - |
| 1777851117 | 22.78° C | 67% | 1017.8 hPa | 0 mm | - | - | - |
| 1777850818 | 21.11° C | 70% | 1017.8 hPa | 0 mm | - | - | - |
| 1777850519 | 21.11° C | 70% | 1017.8 hPa | 0 mm | - | - | - |
| 1777850220 | 21.11° C | 71% | 1017.9 hPa | 0 mm | - | - | - |
* Rain latest hour (hover to see other rain measurements)
** Current wind speed in m/s (hover to see current wind gust speed)